Time;durP1;ratioP1;P1;durP2;ratioP2;P2;SDS_P1;SDS_P2;PMS_P1;PMS_P2;Temp;Humidity;BMP_temperature;BMP_pressure;BME280_temperature;BME280_humidity;BME280_pressure;Samples;Min_cycle;Max_cycle;Signal;HPM_P1;HPM_P2
2023/07/21 00:01:16;;;;;;;5.95;2.78;;;20.50;99.90;;;;;;4184753;28;20263;-56
2023/07/21 00:03:38;;;;;;;2.85;1.52;;;20.60;99.90;;;;;;4183991;28;20048;-56
2023/07/21 00:06:06;;;;;;;4.43;2.30;;;20.60;99.90;;;;;;4183633;28;20111;-56
2023/07/21 00:08:29;;;;;;;3.00;1.80;;;20.60;99.90;;;;;;4187338;28;20074;-56
2023/07/21 00:10:48;;;;;;;3.53;2.53;;;20.70;99.90;;;;;;4182932;28;20092;-56
2023/07/21 00:13:09;;;;;;;5.72;2.25;;;20.80;99.90;;;;;;4185236;28;20390;-56
2023/07/21 00:15:29;;;;;;;2.33;1.80;;;20.70;99.90;;;;;;4185241;28;20285;-56
2023/07/21 00:17:49;;;;;;;6.30;2.42;;;20.60;99.90;;;;;;4185074;28;20240;-56
2023/07/21 00:20:12;;;;;;;3.85;2.28;;;20.60;99.90;;;;;;4185588;28;20052;-56
2023/07/21 00:22:32;;;;;;;3.22;2.08;;;20.60;99.90;;;;;;4183397;28;20087;-57
2023/07/21 00:24:52;;;;;;;3.28;2.50;;;20.70;99.90;;;;;;4181680;28;20051;-56
2023/07/21 00:27:12;;;;;;;2.70;2.17;;;20.70;99.90;;;;;;4182745;28;20043;-56
2023/07/21 00:29:32;;;;;;;2.25;1.77;;;20.60;99.90;;;;;;4182591;28;20044;-56
2023/07/21 00:31:53;;;;;;;4.55;1.98;;;20.60;99.90;;;;;;4178432;28;20104;-56
2023/07/21 00:34:13;;;;;;;2.05;1.95;;;20.40;99.90;;;;;;4182475;28;20051;-57
2023/07/21 00:36:33;;;;;;;3.38;2.17;;;20.10;99.90;;;;;;4183950;28;20056;-56
2023/07/21 00:38:53;;;;;;;4.13;1.75;;;20.10;99.90;;;;;;4183440;28;20109;-56
2023/07/21 00:41:15;;;;;;;1.85;1.75;;;20.00;99.90;;;;;;4184082;28;20047;-56
2023/07/21 00:43:35;;;;;;;3.70;2.42;;;19.90;99.90;;;;;;4184603;28;20059;-56
2023/07/21 00:45:55;;;;;;;6.82;2.08;;;19.60;99.90;;;;;;4183920;28;20051;-57
2023/07/21 00:48:17;;;;;;;3.47;2.85;;;19.60;99.90;;;;;;4182540;28;20048;-57
2023/07/21 00:50:43;;;;;;;2.33;1.92;;;19.60;99.90;;;;;;4182447;28;20048;-57
2023/07/21 00:53:05;;;;;;;4.15;2.33;;;19.70;99.90;;;;;;4180987;28;20105;-57
2023/07/21 00:55:25;;;;;;;3.92;2.97;;;19.60;99.90;;;;;;4180164;28;20091;-57
2023/07/21 00:57:48;;;;;;;2.97;2.75;;;19.60;99.90;;;;;;4180002;28;20082;-57
2023/07/21 01:00:12;;;;;;;4.78;3.08;;;19.60;99.90;;;;;;4181543;28;20048;-56
2023/07/21 01:02:33;;;;;;;3.00;2.78;;;19.40;99.90;;;;;;4182494;28;20060;-55
2023/07/21 01:04:59;;;;;;;2.80;2.20;;;19.60;99.90;;;;;;4182174;28;20279;-55
2023/07/21 01:07:20;;;;;;;3.05;2.78;;;19.50;99.90;;;;;;4167561;28;20056;-55
2023/07/21 01:09:42;;;;;;;5.95;4.13;;;19.50;99.90;;;;;;4183637;28;20052;-55
2023/07/21 01:12:06;;;;;;;4.30;3.10;;;19.60;99.90;;;;;;4182304;28;20151;-54
2023/07/21 01:14:28;;;;;;;3.40;2.47;;;19.70;99.90;;;;;;4186138;28;20071;-54
2023/07/21 01:16:49;;;;;;;3.30;2.95;;;19.70;99.90;;;;;;4183460;28;20048;-55
2023/07/21 01:19:15;;;;;;;3.67;2.47;;;19.80;99.90;;;;;;4184657;28;20097;-54
2023/07/21 01:21:40;;;;;;;2.50;2.30;;;19.70;99.90;;;;;;4184631;28;20399;-55
2023/07/21 01:24:37;;;;;;;3.28;2.45;;;19.50;99.90;;;;;;4182666;28;20044;-55
2023/07/21 01:26:57;;;;;;;4.32;3.92;;;19.40;99.90;;;;;;4181489;28;20233;-54
2023/07/21 01:29:19;;;;;;;3.63;3.35;;;19.50;99.90;;;;;;4181883;28;20092;-55
2023/07/21 01:31:40;;;;;;;4.28;3.00;;;19.60;99.90;;;;;;4182156;28;20049;-54
2023/07/21 01:34:02;;;;;;;4.60;4.07;;;19.80;99.90;;;;;;4181759;28;20057;-54
2023/07/21 01:36:23;;;;;;;4.30;3.25;;;19.80;99.90;;;;;;4178554;28;20382;-55
2023/07/21 01:38:45;;;;;;;2.58;2.28;;;19.80;99.90;;;;;;4181763;28;20048;-55
2023/07/21 01:41:07;;;;;;;2.92;2.40;;;19.80;99.90;;;;;;4185571;28;20052;-55
2023/07/21 01:43:27;;;;;;;4.43;3.13;;;19.60;99.90;;;;;;4185511;28;20047;-54
2023/07/21 01:45:48;;;;;;;5.38;2.92;;;19.50;99.90;;;;;;4186783;28;20125;-55
2023/07/21 01:48:09;;;;;;;5.38;3.13;;;19.50;99.90;;;;;;4186841;28;20079;-54
2023/07/21 01:50:30;;;;;;;2.38;2.17;;;19.10;99.90;;;;;;4186461;28;20064;-54
2023/07/21 01:52:51;;;;;;;2.88;2.72;;;19.20;99.90;;;;;;4185786;28;20252;-55
2023/07/21 01:55:39;;;;;;;3.25;3.05;;;19.10;99.90;;;;;;4185528;28;20116;-54
2023/07/21 01:58:03;;;;;;;2.97;2.72;;;18.80;99.90;;;;;;4187648;28;20146;-54
2023/07/21 02:00:26;;;;;;;4.72;3.10;;;18.80;99.90;;;;;;4188167;28;20048;-55
2023/07/21 02:02:50;;;;;;;4.75;2.83;;;18.90;99.90;;;;;;4188415;28;20370;-54
2023/07/21 02:05:21;;;;;;;5.38;3.40;;;18.80;99.90;;;;;;4184999;28;20136;-55
2023/07/21 02:07:41;;;;;;;6.28;3.80;;;18.70;99.90;;;;;;4183081;28;20074;-54
2023/07/21 02:10:03;;;;;;;5.35;3.00;;;18.70;99.90;;;;;;4184216;28;20044;-54
2023/07/21 02:12:23;;;;;;;3.45;2.60;;;18.80;99.90;;;;;;4184082;28;20090;-54
2023/07/21 02:14:44;;;;;;;2.38;2.28;;;18.50;99.90;;;;;;4184192;28;20043;-54
2023/07/21 02:17:04;;;;;;;5.05;2.90;;;18.50;99.90;;;;;;4186123;28;20057;-55
2023/07/21 02:19:24;;;;;;;3.28;3.08;;;18.50;99.90;;;;;;4184650;28;20044;-55
2023/07/21 02:21:44;;;;;;;4.63;2.60;;;18.50;99.90;;;;;;4183904;28;20079;-54
2023/07/21 02:24:05;;;;;;;5.15;3.17;;;18.40;99.90;;;;;;4185638;28;20059;-55
2023/07/21 02:26:25;;;;;;;3.63;3.28;;;18.50;99.90;;;;;;4185815;28;20315;-54
2023/07/21 02:28:46;;;;;;;4.40;3.75;;;18.70;99.90;;;;;;4184350;28;20083;-55
2023/07/21 02:31:07;;;;;;;3.60;3.15;;;18.80;99.90;;;;;;4183972;28;20067;-54
2023/07/21 02:33:26;;;;;;;2.85;2.58;;;18.70;99.90;;;;;;4183932;28;20055;-54
2023/07/21 02:35:47;;;;;;;3.33;3.03;;;18.80;99.90;;;;;;4184380;28;20071;-54
2023/07/21 02:38:07;;;;;;;9.55;4.15;;;18.90;99.90;;;;;;4183246;28;20064;-54
2023/07/21 02:40:27;;;;;;;7.93;3.63;;;18.90;99.90;;;;;;4181763;28;20252;-55
2023/07/21 02:42:47;;;;;;;5.20;3.72;;;19.00;99.90;;;;;;4181399;28;20303;-55
2023/07/21 02:45:07;;;;;;;2.72;2.60;;;19.10;99.90;;;;;;4184335;28;20066;-55
2023/07/21 02:47:27;;;;;;;3.40;3.25;;;19.00;99.90;;;;;;4185794;28;20083;-55
2023/07/21 02:49:50;;;;;;;2.95;2.58;;;18.90;99.90;;;;;;4185614;28;20048;-54
2023/07/21 02:52:13;;;;;;;4.78;2.97;;;18.60;99.90;;;;;;4186211;28;20228;-54
2023/07/21 02:54:33;;;;;;;2.58;2.35;;;18.60;99.90;;;;;;4185294;28;20051;-54
2023/07/21 02:56:53;;;;;;;3.30;3.05;;;18.50;99.90;;;;;;4185978;28;20044;-54
2023/07/21 02:59:15;;;;;;;3.10;3.00;;;18.40;99.90;;;;;;4185612;28;20232;-54
2023/07/21 03:01:38;;;;;;;3.45;3.08;;;18.40;99.90;;;;;;4186505;28;20148;-55
2023/07/21 03:03:59;;;;;;;2.90;2.70;;;18.50;99.90;;;;;;4187570;28;20367;-54
2023/07/21 03:06:19;;;;;;;3.63;3.42;;;18.50;99.90;;;;;;4188148;28;20044;-54
2023/07/21 03:08:39;;;;;;;2.45;2.25;;;18.50;99.90;;;;;;4185527;28;20091;-54
2023/07/21 03:10:59;;;;;;;3.50;3.35;;;18.50;99.90;;;;;;4181145;28;20083;-54
2023/07/21 03:13:20;;;;;;;5.22;2.95;;;18.50;99.90;;;;;;4179853;28;20362;-54
2023/07/21 03:15:40;;;;;;;2.28;2.17;;;18.60;99.90;;;;;;4176998;28;20084;-55
2023/07/21 03:18:00;;;;;;;2.60;2.20;;;18.70;99.90;;;;;;4177994;28;20075;-55
2023/07/21 03:20:21;;;;;;;6.90;2.53;;;18.80;99.90;;;;;;4184856;28;20072;-55
2023/07/21 03:22:45;;;;;;;4.47;3.88;;;18.70;99.90;;;;;;4182568;28;20415;-55
2023/07/21 03:25:06;;;;;;;3.38;3.10;;;18.80;99.90;;;;;;4185518;28;20063;-55
2023/07/21 03:27:27;;;;;;;3.33;3.10;;;18.70;99.90;;;;;;4185041;28;20083;-54
2023/07/21 03:29:51;;;;;;;3.17;2.15;;;18.70;99.90;;;;;;4186101;28;20532;-54
2023/07/21 03:32:11;;;;;;;3.72;3.10;;;18.50;99.90;;;;;;4184869;28;20044;-54
2023/07/21 03:34:32;;;;;;;2.40;2.30;;;18.50;99.90;;;;;;4182821;28;20076;-54
2023/07/21 03:36:52;;;;;;;2.38;2.00;;;18.20;99.90;;;;;;4183130;28;20241;-54
2023/07/21 03:39:12;;;;;;;3.17;2.97;;;18.10;99.90;;;;;;4183465;28;20079;-55
2023/07/21 03:41:32;;;;;;;5.60;3.30;;;18.10;99.90;;;;;;4181899;28;20052;-54
2023/07/21 03:43:52;;;;;;;6.82;4.90;;;18.10;99.90;;;;;;4179660;28;20064;-55
2023/07/21 03:46:12;;;;;;;3.70;3.53;;;18.30;99.90;;;;;;4179615;28;20037;-54
2023/07/21 03:48:34;;;;;;;10.45;3.25;;;18.50;99.90;;;;;;4183185;28;20083;-54
2023/07/21 03:51:05;;;;;;;4.43;4.10;;;18.50;99.90;;;;;;4184374;28;20143;-55
2023/07/21 03:53:26;;;;;;;3.80;3.30;;;18.50;99.90;;;;;;4184251;28;20044;-55
2023/07/21 03:55:56;;;;;;;3.45;2.88;;;18.20;99.90;;;;;;4184791;28;20040;-54
2023/07/21 03:58:17;;;;;;;4.07;3.65;;;18.10;99.90;;;;;;4185182;28;20055;-54
2023/07/21 04:00:39;;;;;;;2.88;2.47;;;18.10;99.90;;;;;;4184529;28;20059;-54
2023/07/21 04:02:59;;;;;;;4.32;2.83;;;18.00;99.90;;;;;;4186006;28;20052;-54
2023/07/21 04:05:19;;;;;;;3.28;3.08;;;18.10;99.90;;;;;;4186363;28;20051;-54
2023/07/21 04:07:39;;;;;;;3.78;3.45;;;18.10;99.90;;;;;;4186065;28;20078;-55
2023/07/21 04:09:59;;;;;;;5.50;4.03;;;17.80;99.90;;;;;;4186883;28;20264;-55
2023/07/21 04:12:20;;;;;;;4.03;3.63;;;17.90;99.90;;;;;;4187285;28;20044;-54
2023/07/21 04:14:40;;;;;;;3.65;3.45;;;18.10;99.90;;;;;;4181380;28;20051;-55
2023/07/21 04:17:00;;;;;;;3.88;3.60;;;18.10;99.90;;;;;;4178823;28;20064;-55
2023/07/21 04:19:21;;;;;;;6.05;3.72;;;18.20;99.90;;;;;;4177961;28;20047;-55
2023/07/21 04:21:40;;;;;;;4.50;3.75;;;18.00;99.90;;;;;;4176513;28;20079;-55
2023/07/21 04:24:01;;;;;;;3.25;3.05;;;18.10;99.90;;;;;;4175331;28;20048;-55
2023/07/21 04:26:20;;;;;;;3.78;3.47;;;18.10;99.90;;;;;;4176575;28;20059;-54
2023/07/21 04:28:41;;;;;;;3.88;2.85;;;17.90;99.90;;;;;;4185266;28;20244;-54
2023/07/21 04:31:01;;;;;;;3.88;3.50;;;18.10;99.90;;;;;;4182501;28;20436;-54
2023/07/21 04:33:21;;;;;;;6.63;3.97;;;18.20;99.90;;;;;;4187185;28;20072;-55
2023/07/21 04:35:48;;;;;;;2.67;2.58;;;18.10;99.90;;;;;;4185195;28;20048;-55
2023/07/21 04:38:07;;;;;;;6.78;3.45;;;18.00;99.90;;;;;;4184803;28;20067;-55
2023/07/21 04:40:27;;;;;;;4.55;3.60;;;18.00;99.90;;;;;;4179227;28;20061;-55
2023/07/21 04:42:48;;;;;;;3.30;2.80;;;18.20;99.90;;;;;;4180406;28;20090;-55
2023/07/21 04:45:11;;;;;;;3.67;3.03;;;18.30;99.90;;;;;;4181892;28;20056;-55
2023/07/21 04:47:31;;;;;;;3.17;2.88;;;18.20;99.90;;;;;;4180648;28;20443;-55
2023/07/21 04:49:52;;;;;;;3.67;3.22;;;18.30;99.90;;;;;;4180346;28;20359;-54
2023/07/21 04:52:12;;;;;;;3.22;3.03;;;18.20;99.90;;;;;;4180460;28;20048;-54
2023/07/21 04:54:32;;;;;;;4.95;2.45;;;18.20;99.90;;;;;;4182111;28;20558;-54
2023/07/21 04:56:52;;;;;;;4.95;3.10;;;18.00;99.90;;;;;;4184093;28;20040;-54
2023/07/21 04:59:13;;;;;;;3.45;3.15;;;17.80;99.90;;;;;;4184181;28;20043;-55
2023/07/21 05:01:35;;;;;;;5.85;3.08;;;17.90;99.90;;;;;;4182941;28;20047;-55
2023/07/21 05:03:55;;;;;;;4.18;3.80;;;18.10;99.90;;;;;;4182056;28;20049;-55
2023/07/21 05:06:15;;;;;;;4.15;3.95;;;18.20;99.90;;;;;;4184552;28;20128;-55
2023/07/21 05:08:37;;;;;;;4.20;4.00;;;18.30;99.90;;;;;;4181416;28;20057;-55
2023/07/21 05:10:57;;;;;;;4.50;4.00;;;18.50;99.90;;;;;;4185204;28;20035;-55
2023/07/21 05:13:17;;;;;;;4.35;4.03;;;18.50;99.90;;;;;;4185567;28;20056;-54
2023/07/21 05:15:41;;;;;;;5.03;3.60;;;18.50;99.90;;;;;;4187069;28;20270;-54
2023/07/21 05:18:02;;;;;;;4.25;3.65;;;18.60;99.90;;;;;;4183682;28;20043;-54
2023/07/21 05:20:24;;;;;;;3.88;3.58;;;18.80;99.90;;;;;;4179709;28;20048;-54
2023/07/21 05:22:46;;;;;;;3.58;3.38;;;18.80;99.90;;;;;;4180762;28;20064;-54
2023/07/21 05:25:11;;;;;;;;;;;18.90;99.90;;;;;;4181352;28;20059;-54
2023/07/21 05:27:31;;;;;;;6.60;3.45;;;18.90;99.90;;;;;;4179996;28;20042;-54
2023/07/21 05:29:51;;;;;;;3.58;3.30;;;18.90;99.90;;;;;;4177930;28;20052;-54
2023/07/21 05:32:12;;;;;;;5.65;2.75;;;18.80;99.90;;;;;;4181145;28;20151;-54
2023/07/21 05:34:32;;;;;;;3.78;2.85;;;18.80;99.90;;;;;;4181239;28;20048;-54
2023/07/21 05:36:52;;;;;;;3.60;3.28;;;18.80;99.90;;;;;;4183982;28;20561;-54
2023/07/21 05:39:12;;;;;;;4.10;2.70;;;18.80;99.90;;;;;;4185322;28;20051;-54
2023/07/21 05:41:35;;;;;;;7.60;3.67;;;19.00;99.90;;;;;;4182521;28;20045;-54
2023/07/21 05:43:55;;;;;;;5.18;2.53;;;19.00;99.90;;;;;;4181485;28;20087;-54
2023/07/21 05:46:15;;;;;;;3.95;3.60;;;19.20;99.90;;;;;;4181513;28;20044;-54
2023/07/21 05:48:35;;;;;;;5.55;3.65;;;19.20;99.90;;;;;;4181060;28;20048;-55
2023/07/21 05:50:56;;;;;;;3.85;2.80;;;19.20;99.90;;;;;;4181699;28;20351;-54
2023/07/21 05:53:16;;;;;;;5.68;3.83;;;19.20;99.90;;;;;;4180478;28;20048;-55
2023/07/21 05:55:41;;;;;;;2.65;2.55;;;19.30;99.90;;;;;;4178391;28;20053;-54
2023/07/21 05:58:01;;;;;;;3.50;3.20;;;19.40;99.90;;;;;;4181419;28;20048;-54
2023/07/21 06:00:21;;;;;;;4.32;2.85;;;19.50;99.90;;;;;;4181319;28;20052;-54
2023/07/21 06:02:41;;;;;;;3.60;3.30;;;19.50;99.90;;;;;;4182423;28;20063;-54
2023/07/21 06:05:02;;;;;;;4.53;2.58;;;19.70;99.90;;;;;;4182094;28;20048;-54
2023/07/21 06:07:22;;;;;;;4.05;3.80;;;19.70;99.90;;;;;;4182096;28;20089;-55
2023/07/21 06:09:43;;;;;;;5.80;2.83;;;19.70;99.90;;;;;;4182297;28;20076;-55
2023/07/21 06:12:04;;;;;;;4.88;3.00;;;19.90;99.90;;;;;;4183996;28;20048;-54
2023/07/21 06:14:24;;;;;;;4.00;2.80;;;20.00;99.90;;;;;;4182383;28;20048;-55
2023/07/21 06:16:45;;;;;;;2.97;2.70;;;20.10;99.90;;;;;;4183833;28;20080;-54
2023/07/21 06:19:05;;;;;;;3.25;3.13;;;20.50;99.90;;;;;;4185027;28;20051;-54
2023/07/21 06:21:25;;;;;;;3.30;2.75;;;20.70;99.90;;;;;;4183203;28;20268;-55
2023/07/21 06:23:46;;;;;;;5.22;3.03;;;20.80;99.90;;;;;;4181821;28;20047;-55
2023/07/21 06:26:07;;;;;;;3.72;2.40;;;20.80;99.90;;;;;;4183458;28;20076;-54
2023/07/21 06:28:28;;;;;;;3.60;3.25;;;21.20;99.90;;;;;;4183133;28;20048;-54
2023/07/21 06:30:48;;;;;;;4.43;2.88;;;21.30;99.90;;;;;;4183540;28;20041;-55
2023/07/21 06:33:08;;;;;;;3.10;2.47;;;21.30;99.90;;;;;;4181084;28;20057;-55
2023/07/21 06:35:29;;;;;;;6.00;2.78;;;21.50;99.90;;;;;;4186956;28;20056;-54
2023/07/21 06:37:49;;;;;;;4.60;2.38;;;21.90;99.90;;;;;;4183980;28;20047;-54
2023/07/21 06:40:10;;;;;;;3.72;1.85;;;22.10;99.90;;;;;;4184081;28;20047;-55
2023/07/21 06:42:31;;;;;;;2.65;2.45;;;22.10;99.90;;;;;;4185103;28;20082;-54
2023/07/21 06:44:52;;;;;;;1.85;1.75;;;22.40;99.90;;;;;;4184772;28;20060;-54
2023/07/21 06:47:14;;;;;;;2.45;2.25;;;22.70;99.90;;;;;;4185586;28;20044;-54
2023/07/21 06:49:34;;;;;;;1.95;1.85;;;22.70;99.90;;;;;;4186575;28;20047;-55
2023/07/21 06:51:54;;;;;;;3.88;2.65;;;22.80;99.90;;;;;;4185734;28;20047;-54
2023/07/21 06:54:14;;;;;;;4.32;2.17;;;22.90;99.90;;;;;;4185781;28;20406;-55
2023/07/21 06:56:35;;;;;;;2.90;2.17;;;22.90;99.90;;;;;;4185004;28;20091;-54
2023/07/21 06:58:55;;;;;;;2.67;2.00;;;23.10;99.90;;;;;;4182569;28;20416;-54
2023/07/21 07:01:16;;;;;;;1.55;1.42;;;23.50;99.90;;;;;;4184241;28;20059;-54
2023/07/21 07:03:36;;;;;;;1.70;1.60;;;23.50;99.90;;;;;;4183307;28;20147;-54
2023/07/21 07:05:57;;;;;;;6.07;1.95;;;23.50;99.90;;;;;;4183407;28;20048;-54
2023/07/21 07:08:17;;;;;;;3.15;1.88;;;23.80;99.90;;;;;;4183696;28;20052;-54
2023/07/21 07:10:37;;;;;;;2.20;2.00;;;23.80;99.90;;;;;;4183941;28;20044;-55
2023/07/21 07:12:57;;;;;;;2.50;2.10;;;23.90;99.90;;;;;;4185809;28;20091;-55
2023/07/21 07:15:18;;;;;;;7.75;1.60;;;24.60;99.90;;;;;;4185497;28;20048;-55
2023/07/21 07:17:38;;;;;;;4.78;1.67;;;24.60;99.90;;;;;;4184691;28;20048;-56
2023/07/21 07:19:58;;;;;;;1.75;1.40;;;24.70;99.90;;;;;;4185043;28;20079;-56
2023/07/21 07:22:21;;;;;;;4.93;2.58;;;24.80;99.90;;;;;;4186204;28;20239;-56
2023/07/21 07:24:41;;;;;;;3.03;1.20;;;25.20;99.90;;;;;;4184335;28;20080;-55
2023/07/21 07:27:01;;;;;;;2.85;1.30;;;25.30;98.70;;;;;;4187209;28;20251;-55
2023/07/21 07:29:22;;;;;;;1.65;1.20;;;25.60;98.70;;;;;;4182791;28;20083;-55
2023/07/21 07:31:42;;;;;;;2.10;1.48;;;25.40;97.90;;;;;;4183977;28;20198;-56
2023/07/21 07:34:03;;;;;;;5.97;1.73;;;25.50;98.10;;;;;;4182564;28;20056;-56
2023/07/21 07:36:24;;;;;;;3.40;1.50;;;25.90;98.70;;;;;;4179697;28;20068;-56
2023/07/21 07:38:45;;;;;;;3.05;1.52;;;26.00;98.40;;;;;;4178305;28;20060;-56
2023/07/21 07:41:09;;;;;;;5.35;1.75;;;26.10;98.00;;;;;;4181286;28;20124;-56
2023/07/21 07:43:29;;;;;;;4.28;1.98;;;26.30;97.10;;;;;;4182943;28;20055;-56
2023/07/21 07:45:49;;;;;;;2.35;1.38;;;26.20;97.10;;;;;;4183284;28;20133;-56
2023/07/21 07:48:10;;;;;;;6.25;1.08;;;26.40;96.80;;;;;;4184723;28;20052;-55
2023/07/21 07:50:30;;;;;;;4.13;1.52;;;26.50;96.10;;;;;;4184480;28;20087;-56
2023/07/21 07:52:50;;;;;;;5.10;1.58;;;26.80;96.40;;;;;;4185473;28;20048;-56
2023/07/21 07:55:10;;;;;;;8.38;1.10;;;27.10;95.90;;;;;;4186772;28;20051;-56
2023/07/21 07:57:34;;;;;;;3.50;1.10;;;27.20;96.00;;;;;;4184486;28;20048;-56
2023/07/21 07:59:55;;;;;;;13.90;2.13;;;27.00;94.80;;;;;;4185276;28;20052;-56
2023/07/21 08:02:15;;;;;;;2.75;1.13;;;27.10;94.90;;;;;;4186505;28;20052;-56
2023/07/21 08:04:35;;;;;;;1.63;1.30;;;27.30;95.60;;;;;;4186829;28;20052;-57
2023/07/21 08:06:55;;;;;;;6.43;1.05;;;27.20;94.60;;;;;;4183370;28;20263;-56
2023/07/21 08:09:16;;;;;;;7.10;1.00;;;27.40;95.40;;;;;;4181069;28;20056;-56
2023/07/21 08:11:37;;;;;;;2.95;0.95;;;27.60;95.40;;;;;;4182745;28;20118;-56
2023/07/21 08:13:57;;;;;;;4.18;0.90;;;27.70;94.80;;;;;;4181997;28;20267;-56
2023/07/21 08:16:18;;;;;;;1.75;1.10;;;27.90;95.60;;;;;;4182080;28;20071;-56
2023/07/21 08:18:38;;;;;;;6.57;1.33;;;28.10;95.00;;;;;;4181437;28;20051;-56
2023/07/21 08:20:58;;;;;;;3.50;1.10;;;28.00;95.20;;;;;;4182085;28;20393;-56
2023/07/21 08:23:19;;;;;;;2.92;1.00;;;27.90;94.60;;;;;;4183138;28;20052;-56
2023/07/21 08:25:49;;;;;;;1.73;1.25;;;28.00;95.50;;;;;;4184205;28;20368;-56
2023/07/21 08:28:10;;;;;;;1.90;1.02;;;28.40;94.70;;;;;;4184549;28;20120;-57
2023/07/21 08:30:30;;;;;;;2.08;1.00;;;28.60;95.10;;;;;;4186563;28;20051;-57
2023/07/21 08:33:02;;;;;;;4.53;1.38;;;28.50;94.10;;;;;;4181721;28;20071;-58
2023/07/21 08:35:24;;;;;;;5.00;1.20;;;28.50;94.20;;;;;;4182179;28;20051;-56
2023/07/21 08:37:44;;;;;;;2.17;1.48;;;28.50;94.30;;;;;;4182309;28;20056;-56
2023/07/21 08:40:08;;;;;;;3.92;1.30;;;28.70;94.10;;;;;;4181474;28;20392;-56
2023/07/21 08:42:28;;;;;;;7.55;1.25;;;29.10;94.20;;;;;;4178786;28;20040;-56
2023/07/21 08:44:49;;;;;;;3.05;1.10;;;29.30;94.00;;;;;;4164705;28;20057;-56
2023/07/21 08:47:09;;;;;;;8.20;1.15;;;29.30;93.40;;;;;;4183698;28;20044;-56
2023/07/21 08:49:29;;;;;;;6.70;1.17;;;29.00;93.20;;;;;;4183498;28;20287;-56
2023/07/21 08:51:50;;;;;;;1.30;1.20;;;29.20;93.70;;;;;;4183640;28;20125;-56
2023/07/21 08:54:10;;;;;;;5.88;1.20;;;29.00;93.50;;;;;;4183673;28;20280;-56
2023/07/21 08:56:30;;;;;;;3.28;1.10;;;28.80;92.60;;;;;;4182475;28;20113;-56
2023/07/21 08:58:50;;;;;;;3.95;1.13;;;29.10;93.40;;;;;;4186275;28;20091;-56
2023/07/21 09:01:10;;;;;;;6.72;1.40;;;28.80;93.40;;;;;;4183750;28;20043;-56
2023/07/21 09:03:30;;;;;;;4.60;1.02;;;28.70;93.60;;;;;;4185814;28;20052;-56
2023/07/21 09:05:51;;;;;;;2.30;1.10;;;28.60;94.20;;;;;;4185436;28;20096;-57
2023/07/21 09:08:29;;;;;;;2.78;1.02;;;29.10;94.20;;;;;;4185393;28;20052;-56
2023/07/21 09:10:49;;;;;;;4.30;1.52;;;29.50;94.80;;;;;;4187982;28;20044;-58
2023/07/21 09:13:17;;;;;;;5.57;1.52;;;29.20;94.20;;;;;;4179378;28;20055;-56
2023/07/21 09:15:38;;;;;;;2.88;1.13;;;29.00;94.50;;;;;;4180105;28;20055;-56
2023/07/21 09:17:59;;;;;;;5.93;1.50;;;29.40;94.80;;;;;;4180898;28;20080;-56
2023/07/21 09:20:20;;;;;;;4.90;1.50;;;29.60;94.70;;;;;;4181342;28;20104;-56
2023/07/21 09:22:40;;;;;;;7.55;1.75;;;29.60;95.20;;;;;;4177843;28;20132;-56
2023/07/21 09:25:01;;;;;;;3.60;1.38;;;29.30;94.80;;;;;;4180304;28;20256;-56
2023/07/21 09:27:21;;;;;;;5.03;1.50;;;29.40;96.00;;;;;;4181317;28;20148;-56
2023/07/21 09:29:42;;;;;;;6.80;1.80;;;29.40;95.60;;;;;;4181382;28;20091;-56
2023/07/21 09:32:17;;;;;;;4.50;1.20;;;29.30;96.50;;;;;;4184937;28;20394;-56
2023/07/21 09:34:51;;;;;;;5.85;1.90;;;29.50;96.80;;;;;;4184433;28;20078;-56
2023/07/21 09:37:15;;;;;;;3.97;1.42;;;29.70;97.10;;;;;;4182754;28;20060;-56
2023/07/21 09:39:35;;;;;;;6.97;2.00;;;29.40;97.10;;;;;;4184821;28;20043;-56
2023/07/21 09:41:55;;;;;;;10.07;1.85;;;29.50;97.60;;;;;;4180635;28;20040;-57
2023/07/21 09:44:18;;;;;;;6.35;1.60;;;29.40;98.80;;;;;;4180764;28;20073;-56
2023/07/21 09:46:38;;;;;;;15.68;3.60;;;29.50;98.30;;;;;;4179287;28;20043;-56
2023/07/21 09:48:59;;;;;;;9.05;1.75;;;29.40;98.50;;;;;;4178497;28;20090;-56
2023/07/21 09:51:26;;;;;;;7.45;1.83;;;29.50;98.50;;;;;;4181163;28;20079;-56
2023/07/21 09:53:49;;;;;;;8.70;2.25;;;29.40;98.70;;;;;;4182842;28;20048;-56
2023/07/21 09:56:11;;;;;;;10.10;2.17;;;29.20;98.70;;;;;;4183577;28;20051;-56
2023/07/21 09:58:35;;;;;;;9.27;1.98;;;29.40;98.30;;;;;;4184608;28;20100;-56
2023/07/21 10:01:05;;;;;;;6.32;1.80;;;29.00;97.10;;;;;;4184833;28;20160;-56
2023/07/21 10:03:26;;;;;;;3.40;2.20;;;29.10;96.90;;;;;;4185866;28;20082;-56
2023/07/21 10:05:46;;;;;;;8.80;2.47;;;28.90;97.60;;;;;;4186023;28;20056;-56
2023/07/21 10:08:09;;;;;;;4.85;2.78;;;29.40;98.20;;;;;;4186664;28;20102;-56
2023/07/21 10:10:29;;;;;;;4.63;1.65;;;29.30;97.30;;;;;;4188144;28;20048;-56
2023/07/21 10:12:52;;;;;;;5.97;2.22;;;29.30;97.60;;;;;;4188480;28;20363;-55
2023/07/21 10:15:14;;;;;;;8.82;1.75;;;29.40;97.60;;;;;;4187333;28;20056;-56
2023/07/21 10:17:58;;;;;;;6.28;1.55;;;29.90;97.20;;;;;;4183438;28;20052;-56
2023/07/21 10:20:19;;;;;;;10.63;2.35;;;30.10;97.30;;;;;;4183180;28;20071;-56
2023/07/21 10:22:39;;;;;;;10.75;2.47;;;30.20;97.00;;;;;;4182208;28;20051;-56
2023/07/21 10:25:00;;;;;;;4.22;1.40;;;30.40;97.30;;;;;;4181398;28;20119;-56
2023/07/21 10:27:23;;;;;;;8.05;1.50;;;30.00;96.60;;;;;;4188135;28;20075;-56
2023/07/21 10:29:44;;;;;;;4.65;2.58;;;30.00;97.30;;;;;;4179326;28;20052;-56
2023/07/21 10:32:05;;;;;;;10.27;1.85;;;30.30;95.50;;;;;;4179177;28;20109;-56
2023/07/21 10:34:30;;;;;;;7.78;2.40;;;30.00;95.80;;;;;;4185379;28;20132;-56
2023/07/21 10:36:53;;;;;;;9.73;1.98;;;30.10;95.60;;;;;;4186711;28;20768;-56
2023/07/21 10:39:16;;;;;;;4.70;1.50;;;30.20;96.30;;;;;;4189348;28;20053;-56
2023/07/21 10:41:36;;;;;;;5.25;1.33;;;30.60;95.70;;;;;;4185681;28;20158;-56
2023/07/21 10:43:57;;;;;;;9.05;1.92;;;30.60;95.70;;;;;;4183682;28;20355;-55
2023/07/21 10:46:19;;;;;;;10.13;2.10;;;30.50;95.10;;;;;;4183651;28;20082;-57
2023/07/21 10:48:40;;;;;;;12.60;2.25;;;30.60;95.20;;;;;;4183161;28;20064;-56
2023/07/21 10:51:03;;;;;;;6.18;1.63;;;30.50;94.90;;;;;;4183187;28;20373;-56
2023/07/21 10:53:23;;;;;;;4.07;1.70;;;30.60;95.90;;;;;;4182035;28;20100;-56
2023/07/21 10:55:44;;;;;;;10.35;2.08;;;31.00;95.40;;;;;;4182161;28;20086;-56
2023/07/21 10:58:05;;;;;;;5.57;1.60;;;31.10;95.40;;;;;;4184470;28;20056;-56
2023/07/21 11:00:25;;;;;;;3.80;1.27;;;31.20;95.50;;;;;;4185063;28;20048;-56
2023/07/21 11:02:45;;;;;;;5.13;1.67;;;31.20;94.80;;;;;;4185471;28;20060;-57
2023/07/21 11:05:06;;;;;;;8.45;1.95;;;31.20;95.20;;;;;;4183033;28;20051;-56
2023/07/21 11:07:28;;;;;;;6.25;1.83;;;31.00;94.50;;;;;;4184576;28;20077;-56
2023/07/21 11:09:49;;;;;;;1.65;1.50;;;30.60;95.00;;;;;;4183957;28;20176;-56
2023/07/21 11:12:09;;;;;;;7.53;1.38;;;30.60;95.10;;;;;;4184628;28;20094;-56
2023/07/21 11:14:29;;;;;;;7.93;2.10;;;31.20;95.90;;;;;;4185489;28;20071;-56
2023/07/21 11:17:01;;;;;;;5.32;1.40;;;31.10;96.00;;;;;;4187549;28;20044;-57
2023/07/21 11:19:25;;;;;;;12.33;1.80;;;31.40;95.70;;;;;;4184261;28;20116;-56
2023/07/21 11:21:46;;;;;;;5.57;1.77;;;31.40;94.70;;;;;;4184531;28;20060;-57
2023/07/21 11:24:08;;;;;;;5.85;1.50;;;31.50;94.60;;;;;;4182053;28;20048;-56
2023/07/21 11:26:28;;;;;;;5.85;1.50;;;31.10;94.70;;;;;;4182583;28;20071;-56
2023/07/21 11:28:50;;;;;;;3.55;1.60;;;30.80;94.80;;;;;;4179418;28;20055;-56
2023/07/21 11:31:14;;;;;;;8.43;1.83;;;30.80;94.40;;;;;;4186544;28;20048;-56
2023/07/21 11:33:45;;;;;;;8.98;1.17;;;30.70;94.50;;;;;;4188707;28;20071;-56
2023/07/21 11:36:31;;;;;;;6.25;1.88;;;30.60;94.70;;;;;;4184544;28;20271;-56
2023/07/21 11:38:57;;;;;;;8.02;1.83;;;31.00;94.20;;;;;;4184787;28;20067;-56
2023/07/21 11:41:32;;;;;;;11.25;1.75;;;30.90;94.90;;;;;;4184225;28;20461;-58
2023/07/21 11:43:52;;;;;;;9.13;1.60;;;30.80;94.20;;;;;;4183256;28;20039;-57
2023/07/21 11:46:23;;;;;;;9.68;1.73;;;31.10;95.00;;;;;;4185102;28;20044;-57
2023/07/21 11:48:48;;;;;;;7.22;1.40;;;31.20;95.20;;;;;;4181658;28;20044;-57
2023/07/21 11:51:08;;;;;;;10.45;1.70;;;31.30;95.00;;;;;;4183740;28;20055;-57
2023/07/21 11:53:47;;;;;;;6.85;1.33;;;31.40;95.10;;;;;;4183256;28;20088;-58
2023/07/21 11:56:07;;;;;;;9.57;2.45;;;31.60;93.90;;;;;;4182053;28;20052;-57
2023/07/21 11:58:28;;;;;;;11.15;1.52;;;31.50;94.50;;;;;;4181427;28;20051;-57
2023/07/21 12:00:49;;;;;;;12.98;1.58;;;31.20;93.70;;;;;;4182826;28;20051;-57
2023/07/21 12:03:12;;;;;;;10.48;2.50;;;31.50;95.20;;;;;;4183088;28;20048;-57
2023/07/21 12:05:33;;;;;;;7.90;2.42;;;31.80;94.40;;;;;;4183770;28;20113;-57
2023/07/21 12:07:53;;;;;;;4.13;1.67;;;31.50;94.80;;;;;;4182835;28;20052;-57
2023/07/21 12:10:13;;;;;;;7.43;1.63;;;31.60;95.30;;;;;;4182404;28;20052;-57
2023/07/21 12:12:33;;;;;;;10.27;1.80;;;32.10;94.30;;;;;;4182147;28;20383;-57
2023/07/21 12:14:54;;;;;;;5.47;1.95;;;32.00;95.30;;;;;;4183563;28;20048;-57
2023/07/21 12:17:14;;;;;;;4.72;1.10;;;31.70;94.20;;;;;;4184233;28;20420;-57